Cairns, Queensland

4:14 PM AEST on August 24, 2016 (GMT +1000)
Cairns International | | Change Station

Elev 10 ft 16.87 °S, 145.75 °E | Updated 14 minutes ago

Partly Cloudy
Partly Cloudy
81 °F
Feels Like 85 °F
N
8
Wind Variable Wind from North

Today
High -- | Low -- °F
--% Chance of Precip.
Yesterday
High -- | Low -- °F
Precip. -- in
Pressure 29.77 in
Visibility 6.2 miles
Clouds Few 3000 ft
Heat Index 85 °F
Dew Point 73 °F
Humidity 79%
Rainfall 0.00 in
Snow Depth Not available.
6:29 AM 6:09 PM
Waning Gibbous, 60% visible
METAR YBCS 240600Z 35007KT 9999 FEW030 27/23 Q1008 FM0800 VRB05KT 9999 SCT020
Pressure 29.77 in
Visibility 6.2 miles
Clouds Few 3000 ft
Heat Index 85 °F
Dew Point 73 °F
Humidity 79%
Rainfall 0.00 in
Snow Depth Not available.
6:29 AM 6:09 PM
Waning Gibbous, 60% visible
METAR YBCS 240600Z 35007KT 9999 FEW030 27/23 Q1008 FM0800 VRB05KT 9999 SCT020

10-Day Weather Forecast

Almanac

Astronomy

Aug. 24, 2016 Rise Set
Actual Time
Civil Twilight
Nautical Twilight
Astronomical Twilight
Moon
Length of Visible Light
Length of Day
Tomorrow will be .
, % of the Moon is Illuminated

Today's Extremes

Country Highs Country Lows

Community

WunderPhotos

Upload Photos

1,934,554 photos uploaded!

WunderBlog® & News

Nearby

Air Quality

  Air Quality AQ Index Pollutant
Not available.

Snow Depth

Station Depth Elevation

Earthquake Activity

City Distance Mag. Time & Date
Minimum magnitude displayed is 2.5.

Coastal Water Temperatures

Place Temperature

Stations

Nearby Weather Stations

Station Location Temp. Windchill Dew Point Humidity Wind Precip. Elev Updated Type